KFLL/FLL METAR and TAF weather

Enter ICAO airport designator
Station Type Date Time Source
KFLL METAR 2022/01/19 18:53 UTC NOAA

KFLL 191853Z 13009G18KT 10SM SCT048 24/13 A3015 RMK AO2 SLP207 T02390133 PNO


Station Type Date Time Source
KFLL Decoded METAR 2022/01/19 18:53 UTC NOAA

FORT LAUDERDALE/HOLLYWOOD, FL, United States (KFLL) 26-04N 080-09W 30M
Jan 19, 2022 - 01:53 PM EST / 2022.01.19 1853 UTC
Wind: from the SE (130 degrees) at 10 MPH (9 KT) gusting to 21 MPH (18 KT):0
Visibility: 10 mile(s):0
Sky conditions: partly cloudy
Temperature: 75.0 F (23.9 C)
Dew Point: 55.9 F (13.3 C)
Relative Humidity: 51%
Pressure (altimeter): 30.15 in. Hg (1020 hPa)
ob: KFLL 191853Z 13009G18KT 10SM SCT048 24/13 A3015 RMK AO2 SLP207 T02390133 PNO
cycle: 19

Station Type Date Time Source
KFLL TAF 2022/01/19 18:31 UTC NOAA

TAF KFLL 191724Z 1918/2024 12010KT P6SM SCT030 BKN040
FM200200 13006KT P6SM SCT030
FM201500 15008KT P6SM SCT030 BKN050
FM201800 15010KT P6SM VCSH SCT030 BKN050

Example: see airport list